createdAt,value
2023-05-19T00:08:01.405Z,10.90
2023-05-19T00:10:31.998Z,11.00
2023-05-19T00:12:59.507Z,10.90
2023-05-19T00:15:26.954Z,10.90
2023-05-19T00:17:55.626Z,10.70
2023-05-19T00:20:23.080Z,10.60
2023-05-19T00:22:54.123Z,10.60
2023-05-19T00:27:56.766Z,10.60
2023-05-19T00:30:26.643Z,10.50
2023-05-19T00:32:54.209Z,10.50
2023-05-19T00:35:21.952Z,10.40
2023-05-19T00:37:49.025Z,10.30
2023-05-19T00:59:03.907Z,10.10
2023-05-19T01:01:32.431Z,10.10
2023-05-19T01:04:00.310Z,10.10
2023-05-19T01:06:28.141Z,9.90
2023-05-19T01:08:56.149Z,9.70
2023-05-19T01:11:23.213Z,9.50
2023-05-19T01:13:50.680Z,9.50
2023-05-19T01:17:05.407Z,9.40
2023-05-19T01:19:38.854Z,9.40
2023-05-19T01:22:27.161Z,9.40
2023-05-19T01:25:03.127Z,9.50
2023-05-19T01:27:36.297Z,9.50
2023-05-19T01:30:34.059Z,9.50
2023-05-19T01:33:04.697Z,9.50
2023-05-19T01:35:33.501Z,9.50
2023-05-19T01:38:02.087Z,9.40
2023-05-19T01:40:30.629Z,9.40
2023-05-19T01:42:59.910Z,9.30
2023-05-19T01:53:40.804Z,9.40
2023-05-19T01:56:08.396Z,9.30
2023-05-19T01:58:59.965Z,9.40
2023-05-19T02:01:53.568Z,9.50
2023-05-19T02:04:23.599Z,9.50
2023-05-19T02:18:30.956Z,9.50
2023-05-19T02:37:45.962Z,9.20
2023-05-19T05:06:48.276Z,9.30
2023-05-19T05:09:15.911Z,9.50
2023-05-19T05:33:14.015Z,10.20
2023-05-19T05:38:26.347Z,10.30
2023-05-19T05:48:54.667Z,10.70
2023-05-19T05:51:25.067Z,10.80
2023-05-19T05:53:54.428Z,10.90
2023-05-19T05:56:22.497Z,10.90
2023-05-19T06:04:07.062Z,11.10
2023-05-19T06:09:15.719Z,11.50
2023-05-19T06:11:43.500Z,11.70
2023-05-19T06:22:44.606Z,12.20
2023-05-19T06:36:52.808Z,12.80
2023-05-19T06:47:44.617Z,12.90
2023-05-19T06:50:11.776Z,12.90
2023-05-19T06:52:38.855Z,12.80
2023-05-19T06:55:07.106Z,12.80
2023-05-19T06:57:34.112Z,12.80
2023-05-19T07:00:01.122Z,12.80
2023-05-19T07:02:28.281Z,12.80
2023-05-19T07:04:55.375Z,12.80
2023-05-19T07:07:22.773Z,12.90
2023-05-19T07:09:49.854Z,12.90
2023-05-19T07:12:16.850Z,13.00
2023-05-19T07:14:43.890Z,13.00
2023-05-19T07:17:11.162Z,13.00
2023-05-19T07:19:38.196Z,13.00
2023-05-19T07:22:05.435Z,13.00
2023-05-19T07:24:32.485Z,13.20
2023-05-19T07:26:59.479Z,13.50
2023-05-19T07:29:26.552Z,13.70
2023-05-19T07:31:57.880Z,13.80
2023-05-19T07:34:25.487Z,13.90
2023-05-19T07:36:52.523Z,13.90
2023-05-19T07:39:20.121Z,14.20
2023-05-19T07:41:52.839Z,14.70
2023-05-19T07:44:19.952Z,14.80
2023-05-19T07:46:47.526Z,14.70
2023-05-19T07:49:14.931Z,14.40
2023-05-19T07:57:20.468Z,15.30
2023-05-19T08:02:43.953Z,16.20
2023-05-19T08:05:11.717Z,15.80
2023-05-19T08:07:39.174Z,15.20
2023-05-19T08:10:06.697Z,15.00
2023-05-19T08:15:22.631Z,15.50
2023-05-19T08:17:50.094Z,16.20
2023-05-19T08:20:17.242Z,16.30
2023-05-19T08:22:44.221Z,16.30
2023-05-19T08:27:53.300Z,16.60
2023-05-19T08:30:30.935Z,16.70
2023-05-19T08:33:21.652Z,16.90
2023-05-19T08:41:58.106Z,17.30
2023-05-19T08:47:15.379Z,17.70
2023-05-19T08:58:04.754Z,18.80
2023-05-19T09:00:32.744Z,17.90
2023-05-19T09:03:17.708Z,17.60
2023-05-19T09:14:07.799Z,18.40
2023-05-19T09:16:35.324Z,18.80
2023-05-19T09:19:02.655Z,18.80
2023-05-19T09:21:33.397Z,18.10
2023-05-19T09:24:08.028Z,17.60
2023-05-19T09:26:42.661Z,18.00
2023-05-19T09:29:17.439Z,18.00
2023-05-19T09:34:57.208Z,18.50
2023-05-19T09:37:31.259Z,17.90
2023-05-19T09:54:56.917Z,18.40
2023-05-19T10:29:34.814Z,17.60
2023-05-19T10:40:21.922Z,19.30
2023-05-19T10:43:07.543Z,19.00
2023-05-19T11:07:10.871Z,19.80
2023-05-19T11:09:41.356Z,20.40
2023-05-19T11:12:10.846Z,20.30
2023-05-19T11:14:39.368Z,20.40
2023-05-19T11:17:14.675Z,20.80
2023-05-19T11:19:55.319Z,21.00
2023-05-19T11:22:27.344Z,21.30
2023-05-19T11:24:58.020Z,21.50
2023-05-19T11:27:28.287Z,21.80
2023-05-19T11:29:57.272Z,22.80
2023-05-19T11:32:27.830Z,23.20
2023-05-19T11:34:56.696Z,23.50
2023-05-19T11:37:23.960Z,23.50
2023-05-19T11:39:52.242Z,23.00
2023-05-19T11:42:19.748Z,23.00
2023-05-19T11:44:46.948Z,23.20
2023-05-19T11:47:15.004Z,22.50
2023-05-19T11:49:47.787Z,22.50
2023-05-19T11:52:15.284Z,22.20
2023-05-19T11:54:42.300Z,21.90
2023-05-19T11:57:14.265Z,21.80
2023-05-19T11:59:45.691Z,21.90
2023-05-19T12:02:27.825Z,21.80
2023-05-19T12:04:55.385Z,21.80
2023-05-19T12:07:26.167Z,22.30
2023-05-19T12:09:55.507Z,22.70
2023-05-19T12:12:23.317Z,23.40
2023-05-19T12:14:53.545Z,23.20
2023-05-19T12:17:21.670Z,22.60
2023-05-19T12:19:49.806Z,22.40
2023-05-19T12:22:18.184Z,21.80
2023-05-19T12:24:46.496Z,22.20
2023-05-19T12:27:21.093Z,22.70
2023-05-19T12:29:52.616Z,23.10
2023-05-19T12:32:23.961Z,23.30
2023-05-19T12:34:51.360Z,23.80
2023-05-19T12:37:19.580Z,24.20
2023-05-19T12:39:48.450Z,24.80
2023-05-19T12:42:16.447Z,25.20
2023-05-19T12:44:48.378Z,25.10
2023-05-19T12:47:16.776Z,25.10
2023-05-19T12:49:57.941Z,25.00
2023-05-19T12:52:25.589Z,24.90
2023-05-19T12:55:07.302Z,25.60
2023-05-19T12:57:39.306Z,25.40
2023-05-19T13:00:21.159Z,25.50
2023-05-19T13:03:06.167Z,25.50
2023-05-19T13:05:40.309Z,24.50
2023-05-19T13:08:12.449Z,24.90
2023-05-19T13:10:42.134Z,24.20
2023-05-19T13:13:10.481Z,24.20
2023-05-19T13:15:42.938Z,24.20
2023-05-19T13:20:47.180Z,23.30
2023-05-19T13:23:14.685Z,22.70
2023-05-19T13:25:42.418Z,23.00
2023-05-19T13:28:10.463Z,23.40
2023-05-19T13:30:40.415Z,23.20
2023-05-19T13:33:07.865Z,23.50
2023-05-19T13:35:37.929Z,23.90
2023-05-19T13:38:12.090Z,23.50
2023-05-19T13:40:40.358Z,23.10
2023-05-19T13:43:08.858Z,21.70
2023-05-19T13:45:36.611Z,21.10
2023-05-19T13:48:03.851Z,20.80
2023-05-19T13:50:30.838Z,20.50
2023-05-19T13:52:57.932Z,20.70
2023-05-19T13:55:27.632Z,21.10
2023-05-19T13:57:54.813Z,21.20
2023-05-19T14:00:21.883Z,21.00
2023-05-19T14:02:49.120Z,20.70
2023-05-19T14:05:16.202Z,20.70
2023-05-19T14:07:44.606Z,20.90
2023-05-19T14:10:11.916Z,20.90
2023-05-19T14:12:52.801Z,21.20
2023-05-19T14:15:26.945Z,21.50
2023-05-19T14:17:54.099Z,21.70
2023-05-19T14:20:21.252Z,21.90
2023-05-19T14:22:48.349Z,21.80
2023-05-19T14:25:15.414Z,21.80
2023-05-19T14:27:43.402Z,21.60
2023-05-19T14:30:11.079Z,21.60
2023-05-19T14:32:38.108Z,21.60
2023-05-19T14:35:06.537Z,21.50
2023-05-19T14:37:33.605Z,21.40
2023-05-19T14:45:26.965Z,21.00
2023-05-19T14:47:54.046Z,21.10
2023-05-19T14:50:21.120Z,21.00
2023-05-19T14:52:48.357Z,20.90
2023-05-19T14:55:15.471Z,20.70
2023-05-19T14:57:42.661Z,20.50
2023-05-19T15:00:10.535Z,20.30
2023-05-19T15:02:37.765Z,20.60
2023-05-19T15:05:05.164Z,20.60
2023-05-19T15:07:32.117Z,20.60
2023-05-19T15:09:59.268Z,20.50
2023-05-19T15:12:26.315Z,20.50
2023-05-19T15:14:53.501Z,20.20
2023-05-19T15:17:20.753Z,19.70
2023-05-19T15:19:47.956Z,19.20
2023-05-19T15:22:15.114Z,18.90
2023-05-19T15:24:42.264Z,18.70
2023-05-19T15:27:09.428Z,18.70
2023-05-19T15:29:36.580Z,18.80
2023-05-19T15:32:03.836Z,18.70
2023-05-19T15:34:30.875Z,18.80
2023-05-19T15:36:57.825Z,18.80
2023-05-19T15:39:24.937Z,18.60
2023-05-19T15:41:52.197Z,18.70
2023-05-19T15:44:19.364Z,18.90
2023-05-19T15:46:46.527Z,19.10
2023-05-19T15:49:13.710Z,19.30
2023-05-19T15:51:40.786Z,19.30
2023-05-19T15:54:08.052Z,19.20
2023-05-19T15:56:35.148Z,19.20
2023-05-19T15:59:02.210Z,19.30
2023-05-19T16:01:29.743Z,19.10
2023-05-19T16:03:56.901Z,19.00
2023-05-19T16:06:25.266Z,18.90
2023-05-19T16:08:52.288Z,18.60
2023-05-19T16:11:20.691Z,18.20
2023-05-19T16:13:47.645Z,18.10
2023-05-19T16:16:14.776Z,18.00
2023-05-19T16:18:44.153Z,17.80
2023-05-19T16:21:11.481Z,17.60
2023-05-19T16:23:38.603Z,17.40
2023-05-19T16:26:05.832Z,17.30
2023-05-19T16:28:33.027Z,17.20
2023-05-19T16:31:00.624Z,17.10
2023-05-19T16:33:28.432Z,16.90
2023-05-19T16:35:58.815Z,16.80
2023-05-19T16:38:26.888Z,16.60
2023-05-19T16:40:53.853Z,16.50
2023-05-19T16:43:20.817Z,16.50
2023-05-19T16:45:47.939Z,16.50
2023-05-19T16:48:14.972Z,16.40
2023-05-19T16:50:41.989Z,16.20
2023-05-19T16:53:09.073Z,16.10
2023-05-19T16:55:36.241Z,16.00
2023-05-19T16:58:03.232Z,16.10
2023-05-19T17:00:30.325Z,16.10
2023-05-19T17:02:57.604Z,15.80
2023-05-19T17:05:24.832Z,15.60
2023-05-19T17:07:52.002Z,15.40
2023-05-19T17:10:19.613Z,15.40
2023-05-19T17:12:46.623Z,15.40
2023-05-19T17:15:13.657Z,15.50
2023-05-19T17:17:40.818Z,15.40
2023-05-19T17:20:08.485Z,15.30
2023-05-19T17:22:35.824Z,15.20
2023-05-19T17:25:02.857Z,15.20
2023-05-19T17:27:29.969Z,15.20
2023-05-19T17:29:56.980Z,15.20
2023-05-19T17:32:28.402Z,15.10
2023-05-19T17:34:55.977Z,15.10
2023-05-19T17:37:25.808Z,15.20
2023-05-19T17:39:52.908Z,15.20
2023-05-19T17:42:20.106Z,15.20
2023-05-19T17:44:47.106Z,15.10
2023-05-19T17:47:14.129Z,15.10
2023-05-19T17:49:41.566Z,15.10
2023-05-19T17:52:09.647Z,15.00
2023-05-19T17:54:36.859Z,14.80
2023-05-19T17:57:06.580Z,14.60
2023-05-19T17:59:34.004Z,14.40
2023-05-19T18:02:01.707Z,14.20
2023-05-19T18:04:29.001Z,14.20
2023-05-19T18:06:56.642Z,14.20
2023-05-19T18:09:28.530Z,14.10
2023-05-19T18:11:57.419Z,14.00
2023-05-19T18:14:24.359Z,13.90
2023-05-19T18:16:51.900Z,14.00
2023-05-19T18:19:19.066Z,13.90
2023-05-19T18:21:46.652Z,13.90
2023-05-19T18:24:13.665Z,13.90
2023-05-19T18:26:42.277Z,13.90
2023-05-19T18:29:11.077Z,13.90
2023-05-19T18:31:38.366Z,13.80
2023-05-19T18:34:05.571Z,13.80
2023-05-19T18:36:33.077Z,13.70
2023-05-19T18:39:00.238Z,13.70
2023-05-19T18:41:27.534Z,13.70
2023-05-19T18:43:54.855Z,13.60
2023-05-19T18:46:21.989Z,13.50
2023-05-19T18:48:50.830Z,13.50
2023-05-19T18:51:18.822Z,13.50
2023-05-19T18:53:48.718Z,13.40
2023-05-19T18:56:26.437Z,13.50
2023-05-19T18:58:55.041Z,13.40
2023-05-19T19:01:22.285Z,13.40
2023-05-19T19:03:49.758Z,13.40
2023-05-19T19:06:17.498Z,13.40
2023-05-19T19:08:44.791Z,13.40
2023-05-19T19:11:11.862Z,13.30
2023-05-19T19:13:39.918Z,13.30
2023-05-19T19:16:07.415Z,13.30
2023-05-19T19:18:36.539Z,13.30
2023-05-19T19:21:05.971Z,13.20
2023-05-19T19:23:33.769Z,13.30
2023-05-19T19:26:01.096Z,13.20
2023-05-19T19:28:28.278Z,13.30
2023-05-19T19:30:55.406Z,13.20
2023-05-19T19:33:22.545Z,13.20
2023-05-19T19:35:49.714Z,13.20
2023-05-19T19:38:16.683Z,13.20
2023-05-19T19:40:43.680Z,13.10
2023-05-19T19:43:11.067Z,13.10
2023-05-19T19:45:39.853Z,13.00
2023-05-19T19:48:07.841Z,12.90
2023-05-19T19:50:35.189Z,12.90
2023-05-19T19:53:02.385Z,12.80
2023-05-19T19:55:30.813Z,12.80
2023-05-19T19:57:58.025Z,12.70
2023-05-19T20:00:25.293Z,12.70
2023-05-19T20:03:04.214Z,12.60
2023-05-19T20:05:32.822Z,12.50
2023-05-19T20:07:59.895Z,12.50
2023-05-19T20:10:26.880Z,12.40
2023-05-19T20:12:53.922Z,12.40
2023-05-19T20:15:21.045Z,12.40
2023-05-19T20:17:48.151Z,12.30
2023-05-19T20:20:15.963Z,12.30
2023-05-19T20:22:45.889Z,12.20
2023-05-19T20:25:13.085Z,12.10
2023-05-19T20:27:40.326Z,12.10
2023-05-19T20:30:07.915Z,12.00
2023-05-19T20:32:35.643Z,12.00
2023-05-19T20:35:02.902Z,11.90
2023-05-19T20:37:29.923Z,11.90
2023-05-19T20:39:56.879Z,11.90
2023-05-19T20:42:23.938Z,11.80
2023-05-19T20:44:51.422Z,11.80
2023-05-19T20:47:21.305Z,11.70
2023-05-19T20:49:50.983Z,11.60
2023-05-19T20:52:18.490Z,11.60
2023-05-19T20:54:46.546Z,11.50
2023-05-19T20:57:13.706Z,11.50
2023-05-19T20:59:40.965Z,11.40
2023-05-19T21:02:08.044Z,11.50
2023-05-19T21:04:35.200Z,11.40
2023-05-19T21:07:02.307Z,11.50
2023-05-19T21:09:29.370Z,11.50
2023-05-19T21:11:56.581Z,11.50
2023-05-19T21:14:25.458Z,11.50
2023-05-19T21:16:56.173Z,11.50
2023-05-19T21:19:23.738Z,11.50
2023-05-19T21:21:51.034Z,11.50
2023-05-19T21:24:18.060Z,11.50
2023-05-19T21:26:45.063Z,11.40
2023-05-19T21:29:12.088Z,11.40
2023-05-19T21:31:39.380Z,11.20
2023-05-19T21:34:07.838Z,11.30
2023-05-19T21:36:35.332Z,11.30
2023-05-19T21:39:02.406Z,11.30
2023-05-19T21:41:31.360Z,11.30
2023-05-19T21:43:58.403Z,11.20
2023-05-19T21:46:26.649Z,11.30
2023-05-19T21:48:53.686Z,11.30
2023-05-19T21:51:20.969Z,11.30
2023-05-19T21:53:48.138Z,11.20
2023-05-19T21:56:16.445Z,11.30
2023-05-19T21:58:43.623Z,11.30
2023-05-19T22:01:10.586Z,11.20
2023-05-19T22:03:37.729Z,11.20
2023-05-19T22:06:06.545Z,11.20
2023-05-19T22:08:33.968Z,11.20
2023-05-19T22:11:01.518Z,11.30
2023-05-19T22:13:28.758Z,11.20
2023-05-19T22:15:57.142Z,11.20
2023-05-19T22:18:24.533Z,11.20
2023-05-19T22:20:51.493Z,11.20
2023-05-19T22:23:18.514Z,11.20
2023-05-19T22:25:45.729Z,11.20
2023-05-19T22:28:13.079Z,11.10
2023-05-19T22:30:42.307Z,11.10
2023-05-19T22:33:10.065Z,11.10
2023-05-19T22:35:37.405Z,11.10
2023-05-19T22:38:04.478Z,11.10
2023-05-19T22:40:32.853Z,11.10
2023-05-19T22:42:59.984Z,11.00
2023-05-19T22:45:27.020Z,11.00
2023-05-19T22:53:40.075Z,11.10
2023-05-19T22:56:07.413Z,11.10
2023-05-19T22:58:34.570Z,11.10
2023-05-19T23:01:01.631Z,11.00
2023-05-19T23:03:28.646Z,11.10
2023-05-19T23:05:55.747Z,11.00
2023-05-19T23:08:22.999Z,10.90
2023-05-19T23:10:49.935Z,10.90
2023-05-19T23:13:17.719Z,10.90
2023-05-19T23:15:44.916Z,10.80
2023-05-19T23:18:12.094Z,10.80
2023-05-19T23:20:39.275Z,10.80
2023-05-19T23:23:06.549Z,10.80
2023-05-19T23:25:33.784Z,10.80
2023-05-19T23:28:01.221Z,10.70
2023-05-19T23:30:30.657Z,10.70
2023-05-19T23:32:57.816Z,10.70
2023-05-19T23:35:24.997Z,10.70
2023-05-19T23:37:53.384Z,10.70
2023-05-19T23:40:20.705Z,10.80
2023-05-19T23:42:47.800Z,10.70
2023-05-19T23:45:14.882Z,10.70
2023-05-19T23:47:41.922Z,10.70
2023-05-19T23:50:09.445Z,10.70
2023-05-19T23:52:37.590Z,10.60
2023-05-19T23:57:53.176Z,10.60
